Latest Weather Observations for Warrnambool

IDV60801

Issued at 1:32 pm EDT Friday 18 October 2019 (issued every 10 minutes, with the page automatically refreshed every 10 minutes)

About weather observations | Map of weather stations | Latest weather observations for VIC | Other Formats
Station Details ID: 090186 Name: WARRNAMBOOL AIRPORT NDB Lat: -38.29 Lon: 142.45 Height: 70.8 m
Data from the previous 72 hours. | See also: Recent months at Warrnambool
Date/Time
EDT
Temp
°C
App
Temp
°C
Dew
Point
°C
Rel
Hum
%
Delta-T
°C
Wind Press
QNH
hPa
Press
MSL
hPa
Rain since
9am
mm
Dir  Spd
km/h
Gust
km/h
Spd
kts
Gust
kts
18/01:00pm 15.0 6.4 10.2 73 2.5 NW 46 72 25 39 1010.2 1010.2 0.0
18/12:48pm 15.2 7.1 10.2 72 2.6 NW 43 61 23 33 1010.4 1010.4 0.0
18/12:30pm 15.1 6.9 10.5 74 2.4 NNW 44 57 24 31 1010.5 1010.5 0.0
18/12:00pm 14.5 6.1 9.7 73 2.5 NNW 44 63 24 34 1010.8 1010.8 0.0
18/11:41am 14.3 6.1 9.7 74 2.4 NW 43 61 23 33 1011.2 1011.2 0.0
18/11:30am 14.0 5.6 9.8 76 2.2 NNW 44 61 24 33 1011.4 1011.4 0.0
18/11:02am 14.8 6.8 10.6 76 2.2 NNW 43 61 23 33 1011.5 1011.5 0.0
18/11:00am 15.0 7.0 11.0 77 2.1 NNW 44 61 24 33 1011.6 1011.6 0.0
18/10:30am 13.4 5.6 9.6 78 1.9 NW 41 61 22 33 1011.8 1011.8 0.0
18/10:10am 12.8 6.1 9.6 81 1.6 NNW 35 57 19 31 1011.8 1011.8 0.0
18/10:00am 12.4 4.9 9.4 82 1.5 NNW 39 54 21 29 1012.0 1012.0 0.0
18/09:55am 12.4 5.6 9.4 82 1.5 NNW 35 54 19 29 1012.0 1012.0 0.0
18/09:30am 11.5 4.7 9.2 86 1.2 NNW 35 44 19 24 1012.3 1012.3 0.0
18/09:00am 10.5 3.9 8.4 87 1.0 NNW 33 43 18 23 1012.3 1012.3 9.2
18/08:30am 9.9 3.2 8.0 88 0.9 N 33 44 18 24 1012.6 1012.6 9.2
18/08:00am 9.6 3.8 8.0 90 0.8 N 28 37 15 20 1012.6 1012.6 9.2
18/07:30am 9.2 2.9 7.6 90 0.8 N 30 41 16 22 1013.0 1013.0 9.2
18/07:00am 9.1 2.4 7.2 88 0.9 N 32 39 17 21 1012.7 1012.8 9.2
18/06:30am 9.3 2.5 7.1 86 1.0 N 32 41 17 22 1012.7 1012.8 9.2
18/06:00am 9.2 2.8 7.0 86 1.0 N 30 39 16 21 1012.6 1012.6 9.2
18/05:30am 9.2 4.0 7.2 87 0.9 N 24 32 13 17 1013.0 1013.0 9.2
18/05:00am 9.3 4.9 7.3 87 0.9 N 20 26 11 14 1013.3 1013.3 9.2
18/04:30am 9.3 4.8 7.1 86 1.0 N 20 28 11 15 1013.4 1013.4 9.2
18/04:00am 9.4 4.8 6.7 83 1.3 NNW 20 26 11 14 1013.8 1013.8 9.2
18/03:30am 9.4 5.1 6.8 84 1.2 NNW 19 24 10 13 1014.3 1014.3 9.2
18/03:00am 9.0 5.0 6.8 86 1.0 NNW 17 20 9 11 1014.6 1014.6 9.2
18/02:30am 9.0 5.0 6.6 85 1.1 NNW 17 20 9 11 1014.9 1014.9 9.2
18/02:00am 9.3 5.3 6.6 83 1.3 NNW 17 20 9 11 1015.3 1015.3 9.2
18/01:30am 9.3 4.9 6.4 82 1.3 NNW 19 24 10 13 1015.6 1015.6 9.2
18/01:00am 9.2 4.7 6.3 82 1.3 NNW 19 22 10 12 1015.8 1015.8 9.2
18/12:30am 9.4 5.3 6.1 80 1.5 NW 17 24 9 13 1016.0 1016.0 9.2
18/12:00am 9.4 5.7 6.5 82 1.3 NW 15 20 8 11 1016.1 1016.1 9.2
 
Date/Time
EDT
Temp
°C
App
Temp
°C
Dew
Point
°C
Rel
Hum
%
Delta-T
°C
Wind Press
QNH
hPa
Press
MSL
hPa
Rain since
9am
mm
Dir  Spd
km/h
Gust
km/h
Spd
kts
Gust
kts
17/11:30pm 9.8 5.7 6.3 79 1.6 NW 17 24 9 13 1016.4 1016.4 9.2
17/11:00pm 9.7 5.2 7.0 83 1.3 NW 20 28 11 15 1016.4 1016.4 9.2
17/10:30pm 9.6 5.7 7.2 85 1.1 NNW 17 20 9 11 1016.5 1016.5 9.2
17/10:00pm 9.6 6.1 7.4 86 1.0 NNW 15 20 8 11 1016.5 1016.5 9.2
17/09:30pm 9.4 6.3 7.3 87 1.0 NW 13 17 7 9 1016.5 1016.5 9.2
17/09:00pm 10.1 7.4 7.3 83 1.3 WNW 11 19 6 10 1016.3 1016.3 9.2
17/08:30pm 10.3 6.1 7.5 83 1.3 WNW 19 26 10 14 1016.2 1016.2 9.2
17/08:00pm 10.4 5.3 7.6 83 1.3 WNW 24 33 13 18 1016.0 1016.0 9.2
17/07:30pm 10.8 5.8 8.2 84 1.3 W 24 32 13 17 1015.7 1015.7 9.2
17/07:00pm 11.1 6.3 8.7 85 1.2 W 24 35 13 19 1015.3 1015.3 9.2
17/06:30pm 11.4 5.1 9.1 86 1.2 W 32 43 17 23 1014.8 1014.8 9.2
17/06:00pm 11.5 4.7 9.4 87 1.1 W 35 46 19 25 1014.5 1014.5 9.2
17/05:30pm 11.1 5.4 11.1 100 0.0 WSW 32 41 17 22 1013.9 1013.9 9.2
17/05:11pm 11.0 5.3 11.0 100 0.0 WSW 32 41 17 22 1013.7 1013.7 9.2
17/05:00pm 11.3 5.6 11.3 100 0.0 WSW 32 43 17 23 1013.6 1013.6 9.2
17/04:52pm 11.3 5.0 11.1 99 0.1 WSW 35 48 19 26 1013.6 1013.6 9.2
17/04:30pm 12.3 5.1 10.5 89 0.9 WSW 39 56 21 30 1013.2 1013.2 9.2
17/04:00pm 13.0 5.1 10.9 87 1.1 WSW 43 54 23 29 1012.7 1012.8 9.2
17/03:39pm 12.9 5.0 9.5 80 1.7 SW 41 59 22 32 1012.6 1012.6 9.2
17/03:30pm 13.3 5.7 10.5 83 1.5 WSW 41 56 22 30 1012.5 1012.5 9.2
17/03:00pm 13.4 6.4 10.0 80 1.8 WSW 37 52 20 28 1012.4 1012.4 9.2
17/02:30pm 12.7 5.0 10.1 84 1.3 WSW 41 52 22 28 1012.3 1012.3 9.2
17/02:00pm 13.4 5.3 10.9 85 1.3 SW 44 59 24 32 1011.9 1011.9 9.2
17/01:30pm 12.4 4.5 10.8 90 0.8 SW 43 54 23 29 1011.4 1011.4 9.2
17/01:00pm 12.2 4.4 11.3 94 0.5 WSW 43 59 23 32 1010.7 1010.7 9.2
17/12:34pm 11.6 3.7 11.6 100 0.0 W 44 63 24 34 1010.3 1010.3 9.2
17/12:30pm 11.6 3.9 11.6 100 0.0 W 43 56 23 30 1010.4 1010.4 9.2
17/12:26pm 11.3 3.5 11.3 100 0.0 W 43 61 23 33 1010.3 1010.3 9.2
17/12:00pm 11.2 4.6 11.2 100 0.0 W 37 54 20 29 1010.1 1010.1 8.8
17/11:39am 10.9 2.9 10.3 96 0.3 W 43 65 23 35 1009.9 1009.9 8.8
17/11:30am 11.4 4.1 11.4 100 0.0 W 41 57 22 31 1009.9 1009.9 8.8
17/11:24am 10.9 3.4 10.9 100 0.0 W 41 57 22 31 1009.9 1009.9 8.8
17/11:13am 9.4 2.6 9.4 100 0.0 W 35 61 19 33 1009.9 1009.9 8.8
17/11:12am 9.2 2.4 9.2 100 0.0 W 35 61 19 33 1009.9 1009.9 8.8
17/11:02am 8.8 3.2 8.8 100 0.0 W 28 52 15 28 1009.8 1009.8 8.4
17/11:00am 8.7 3.1 8.7 100 0.0 W 28 52 15 28 1009.8 1009.8 8.4
17/10:57am 8.5 2.5 8.5 100 0.0 W 30 52 16 28 1009.9 1009.9 8.4
17/10:54am 8.2 1.5 8.2 100 0.0 W 33 52 18 28 1009.9 1009.9 8.4
17/10:52am 8.1 1.6 8.1 100 0.0 W 32 50 17 27 1009.7 1009.7 8.0
17/10:35am 8.5 2.5 8.5 100 0.0 WNW 30 39 16 21 1009.8 1009.8 6.2
17/10:32am 8.3 2.6 8.3 100 0.0 WNW 28 39 15 21 1009.6 1009.6 5.8
17/10:31am 8.3 3.0 8.3 100 0.0 WNW 26 39 14 21 1009.6 1009.6 5.8
17/10:30am 8.3 3.0 8.3 100 0.0 WNW 26 44 14 24 1009.6 1009.6 5.6
17/10:19am 7.9 1.7 7.9 100 0.0 NW 30 44 16 24 1009.2 1009.2 4.4
17/10:00am 7.7 2.2 7.7 100 0.0 WNW 26 46 14 25 1009.4 1009.4 3.4
17/09:54am 8.2 2.5 8.2 100 0.0 WNW 28 46 15 25 1009.4 1009.4 3.2
17/09:52am 8.5 2.8 8.5 100 0.0 WNW 28 44 15 24 1009.5 1009.5 3.2
17/09:32am 7.6 1.0 7.6 100 0.0 W 32 59 17 32 1009.5 1009.5 2.4
17/09:30am 7.5 1.6 7.5 100 0.0 WSW 28 44 15 24 1009.6 1009.6 2.2
17/09:27am 7.7 2.6 7.7 100 0.0 WSW 24 35 13 19 1009.6 1009.6 1.2
17/09:16am 8.1 3.9 8.1 100 0.0 WNW 20 32 11 17 1009.1 1009.1 0.2
17/09:00am 8.0 3.0 8.0 100 0.0 WNW 24 35 13 19 1008.9 1008.9 14.0
17/08:59am 8.0 3.0 8.0 100 0.0 WNW 24 35 13 19 1008.9 1008.9 14.0
17/08:30am 7.7 3.4 7.7 100 0.0 NW 20 33 11 18 1008.7 1008.7 13.4
17/08:19am 7.6 4.6 7.6 100 0.0 WNW 13 20 7 11 1008.4 1008.4 13.0
17/08:00am 7.4 1.9 7.4 100 0.0 WNW 26 35 14 19 1008.5 1008.5 12.4
17/07:30am 7.3 1.7 7.3 100 0.0 NW 26 39 14 21 1008.0 1008.0 11.2
17/07:00am 7.2 2.0 7.2 100 0.0 WNW 24 33 13 18 1007.7 1007.7 10.4
17/06:32am 7.2 1.6 7.2 100 0.0 NW 26 35 14 19 1007.0 1007.0 9.4
17/06:30am 7.2 2.0 7.2 100 0.0 NW 24 35 13 19 1006.9 1006.9 9.4
17/06:14am 7.2 3.3 7.2 100 0.0 WNW 17 24 9 13 1007.0 1007.0 9.4
17/06:07am 7.2 3.3 7.2 100 0.0 WNW 17 24 9 13 1007.1 1007.1 9.4
17/06:00am 7.2 3.3 7.2 100 0.0 WNW 17 26 9 14 1007.0 1007.0 9.2
17/05:52am 7.2 2.0 7.2 100 0.0 WNW 24 37 13 20 1007.1 1007.1 8.4
17/05:30am 6.9 2.4 6.9 100 0.0 NW 20 35 11 19 1006.6 1006.6 7.6
17/05:20am 7.0 1.7 7.0 100 0.0 WNW 24 37 13 20 1006.6 1006.6 7.6
17/05:10am 7.1 1.1 7.1 100 0.0 NW 28 46 15 25 1006.6 1006.6 7.4
17/05:09am 7.1 0.7 7.1 100 0.0 NW 30 46 16 25 1006.7 1006.7 7.4
17/05:00am 7.2 0.9 7.2 100 0.0 NW 30 43 16 23 1006.5 1006.5 6.2
17/04:30am 7.4 0.7 7.4 100 0.0 NW 32 43 17 23 1006.3 1006.3 6.2
17/04:00am 7.5 2.7 7.5 100 0.0 NW 22 33 12 18 1006.6 1006.6 5.8
17/03:30am 7.3 2.5 7.3 100 0.0 NW 22 32 12 17 1006.8 1006.8 5.6
17/03:00am 7.8 1.2 7.8 100 0.0 NW 32 46 17 25 1006.9 1006.9 5.6
17/02:30am 7.7 2.2 7.4 98 0.1 NW 26 33 14 18 1006.9 1006.9 5.4
17/02:00am 7.5 2.7 7.5 100 0.0 NNW 22 32 12 17 1007.2 1007.2 5.4
17/01:30am 7.3 3.4 7.3 100 0.0 N 17 20 9 11 1007.6 1007.6 5.4
17/01:00am 7.9 4.6 7.9 100 0.0 N 15 20 8 11 1007.8 1007.8 5.4
17/12:30am 8.4 5.9 8.4 100 0.0 NW 11 15 6 8 1008.1 1008.1 5.4
17/12:00am 8.7 4.8 8.7 100 0.0 NW 19 28 10 15 1008.6 1008.6 4.4
 
Date/Time
EDT
Temp
°C
App
Temp
°C
Dew
Point
°C
Rel
Hum
%
Delta-T
°C
Wind Press
QNH
hPa
Press
MSL
hPa
Rain since
9am
mm
Dir  Spd
km/h
Gust
km/h
Spd
kts
Gust
kts
16/11:58pm 8.7 4.8 8.7 100 0.0 NW 19 28 10 15 1008.6 1008.6 4.2
16/11:43pm 9.1 2.8 9.1 100 0.0 NW 32 44 17 24 1008.8 1008.8 3.2
16/11:42pm 9.1 2.8 9.1 100 0.0 NW 32 44 17 24 1008.8 1008.8 3.2
16/11:30pm 9.2 5.8 9.2 100 0.0 NNW 17 28 9 15 1008.2 1008.2 2.2
16/11:00pm 9.3 6.3 9.3 100 0.0 N 15 20 8 11 1008.0 1008.0 1.8
16/10:30pm 9.0 6.3 9.0 100 0.0 N 13 17 7 9 1008.4 1008.4 1.8
16/10:00pm 8.2 5.3 8.2 100 0.0 NE 13 17 7 9 1008.4 1008.4 1.8
16/09:30pm 6.7 3.8 6.7 100 0.0 NNE 11 13 6 7 1009.1 1009.1 1.8
16/09:00pm 7.6 5.9 7.6 100 0.0 NE 6 7 3 4 1009.2 1009.2 1.8
16/08:30pm 8.7 8.3 8.3 97 0.2 CALM 0 0 0 0 1008.9 1008.9 1.8
16/08:00pm 10.1 8.7 9.0 93 0.5 SSW 6 7 3 4 1008.8 1008.8 1.8
16/07:30pm 11.5 9.5 10.1 91 0.7 SSW 11 13 6 7 1008.9 1008.9 1.8
16/07:00pm 12.4 9.3 10.3 87 1.1 SW 17 22 9 12 1009.0 1009.0 1.8
16/06:30pm 13.0 8.9 10.2 83 1.5 SW 22 30 12 16 1008.9 1008.9 1.8
16/06:00pm 13.3 8.6 10.5 83 1.5 SW 26 32 14 17 1008.7 1008.7 1.8
16/05:30pm 14.0 9.7 12.2 89 1.0 SW 26 32 14 17 1008.6 1008.6 1.8
16/05:00pm 14.0 9.4 12.4 90 0.9 SW 28 33 15 18 1008.6 1008.6 1.8
16/04:30pm 14.0 9.5 12.6 91 0.8 SW 28 32 15 17 1008.4 1008.4 1.8
16/04:00pm 13.7 10.1 12.9 95 0.4 SW 24 32 13 17 1008.5 1008.5 1.8
16/03:47pm 13.9 10.8 13.4 97 0.3 SW 22 28 12 15 1008.7 1008.7 1.8
16/03:36pm 13.6 10.8 13.3 98 0.2 SW 20 28 11 15 1008.9 1008.9 1.8
16/03:30pm 14.0 12.0 14.0 100 0.0 SW 17 22 9 12 1008.9 1008.9 1.8
16/03:00pm 12.4 7.3 11.8 96 0.3 WSW 30 41 16 22 1009.2 1009.2 1.6
16/02:53pm 12.8 9.2 10.7 87 1.1 W 20 41 11 22 1009.3 1009.3 1.2
16/02:30pm 15.6 14.1 11.8 78 2.1 WNW 11 17 6 9 1009.0 1009.0 1.0
16/02:03pm 15.1 14.2 13.8 92 0.7 WNW 11 17 6 9 1009.4 1009.4 1.0
16/02:00pm 14.9 13.9 13.3 90 0.9 WNW 11 20 6 11 1009.4 1009.4 1.0
16/01:32pm 14.3 15.3 14.3 100 0.0 SSE 2 7 1 4 1009.4 1009.4 1.0
16/01:30pm 14.0 14.9 14.0 100 0.0 ESE 2 7 1 4 1009.4 1009.4 1.0
16/01:08pm 13.2 13.1 13.2 100 0.0 SW 6 9 3 5 1009.6 1009.6 1.0
16/01:00pm 12.6 11.7 12.6 100 0.0 SW 9 15 5 8 1009.9 1009.9 0.8
16/12:30pm 12.7 11.1 12.7 100 0.0 SW 13 19 7 10 1010.3 1010.3 0.4
16/12:00pm 12.6 9.8 12.6 100 0.0 SSW 19 26 10 14 1010.3 1010.3 0.4
16/11:30am 12.7 10.3 12.7 100 0.0 SSW 17 22 9 12 1010.3 1010.3 0.4
16/11:00am 12.7 11.5 12.7 100 0.0 WSW 11 15 6 8 1010.5 1010.5 0.2
16/10:30am 12.3 10.9 12.3 100 0.0 WSW 11 17 6 9 1010.7 1010.7 0.2
16/10:00am 12.0 10.9 12.0 100 0.0 WSW 9 11 5 6 1010.7 1010.7 0.2
16/09:48am 11.6 11.3 11.6 100 0.0 S 4 9 2 5 1010.6 1010.6 0.2
16/09:30am 11.5 12.0 11.5 100 0.0 CALM 0 0 0 0 1010.7 1010.7 0.2
16/09:22am 11.5 12.0 11.5 100 0.0 CALM 0 6 0 3 1010.6 1010.6 0.2
16/09:09am 11.2 11.2 11.2 100 0.0 ESE 2 7 1 4 1010.5 1010.5 0.2
16/09:00am 10.8 11.1 10.8 100 0.0 CALM 0 0 0 0 1010.9 1010.9 3.2
16/08:44am 10.7 10.9 10.7 100 0.0 CALM 0 0 0 0 1011.1 1011.1 2.0
16/08:36am 10.7 10.6 10.7 100 0.0 ENE 2 6 1 3 1010.9 1010.9 1.6
16/08:30am 10.6 10.8 10.6 100 0.0 CALM 0 6 0 3 1010.9 1010.9 1.6
16/08:00am 10.5 9.9 10.5 100 0.0 ENE 4 9 2 5 1010.7 1010.7 1.4
16/07:30am 10.2 9.5 10.2 100 0.0 ENE 4 7 2 4 1010.7 1010.7 1.2
16/07:00am 10.1 10.2 10.1 100 0.0 CALM 0 0 0 0 1011.0 1011.0 1.2
16/06:30am 10.0 8.9 10.0 100 0.0 ENE 6 7 3 4 1010.8 1010.8 1.2
16/06:00am 10.0 8.9 10.0 100 0.0 NNE 6 9 3 5 1011.1 1011.1 1.2
16/05:30am 9.8 9.4 9.8 100 0.0 ENE 2 6 1 3 1010.7 1010.7 1.2
16/05:00am 9.7 9.7 9.7 100 0.0 CALM 0 0 0 0 1011.2 1011.2 1.2
16/04:30am 9.6 9.5 9.6 100 0.0 CALM 0 0 0 0 1011.2 1011.2 1.2
16/04:00am 9.2 9.0 9.2 100 0.0 CALM 0 0 0 0 1011.2 1011.2 1.2
16/03:30am 9.4 9.3 9.4 100 0.0 CALM 0 0 0 0 1011.6 1011.6 1.2
16/03:00am 9.7 8.9 9.7 100 0.0 N 4 7 2 4 1012.1 1012.1 1.2
16/02:30am 9.7 8.0 9.7 100 0.0 N 9 9 5 5 1012.6 1012.6 1.2
16/02:00am 9.9 8.6 9.9 100 0.0 N 7 9 4 5 1013.3 1013.3 1.2
16/01:30am 9.8 8.5 9.8 100 0.0 N 7 9 4 5 1013.7 1013.7 1.2
16/01:00am 9.7 9.7 9.7 100 0.0 CALM 0 0 0 0 1013.9 1013.9 1.2
16/12:30am 9.5 8.1 9.5 100 0.0 NW 7 9 4 5 1014.0 1014.0 1.2
16/12:00am 9.1 8.9 9.1 100 0.0 CALM 0 0 0 0 1013.9 1013.9 1.2
 
Date/Time
EDT
Temp
°C
App
Temp
°C
Dew
Point
°C
Rel
Hum
%
Delta-T
°C
Wind Press
QNH
hPa
Press
MSL
hPa
Rain since
9am
mm
Dir  Spd
km/h
Gust
km/h
Spd
kts
Gust
kts
15/11:30pm 9.2 9.0 9.2 100 0.0 CALM 0 0 0 0 1013.9 1013.9 1.2
15/11:00pm 9.7 9.7 9.7 100 0.0 CALM 0 0 0 0 1014.3 1014.3 1.2
15/10:30pm 9.8 9.0 9.8 100 0.0 NNE 4 6 2 3 1014.4 1014.4 1.2
15/10:00pm 9.8 8.7 9.8 100 0.0 NE 6 7 3 4 1014.8 1014.8 1.2
15/09:30pm 10.1 9.3 9.8 98 0.2 NNE 4 7 2 4 1015.0 1015.0 1.2
15/09:00pm 11.0 10.0 10.2 95 0.4 S 6 7 3 4 1015.0 1015.0 1.2
15/08:30pm 11.4 9.4 10.3 93 0.6 S 11 15 6 8 1014.8 1014.8 1.2
15/08:00pm 11.5 8.8 10.4 93 0.6 S 15 17 8 9 1014.5 1014.5 1.2
15/07:46pm 11.6 8.6 10.8 95 0.4 S 17 19 9 10 1014.6 1014.6 1.2
15/07:30pm 11.6 8.7 11.1 97 0.3 S 17 20 9 11 1014.6 1014.6 1.2
15/07:00pm 11.6 8.9 11.6 100 0.0 SSW 17 22 9 12 1014.6 1014.6 1.2
15/06:30pm 11.7 8.1 11.7 100 0.0 SSW 22 28 12 15 1014.3 1014.3 1.2
15/06:01pm 13.0 9.7 12.8 99 0.1 SW 22 35 12 19 1013.7 1013.7 1.2
15/06:00pm 13.0 9.7 12.7 98 0.2 SW 22 35 12 19 1013.7 1013.7 1.2
15/05:30pm 13.9 11.1 13.1 95 0.4 SSW 20 22 11 12 1013.6 1013.6 1.2
15/05:00pm 14.1 11.7 12.8 92 0.7 SW 17 22 9 12 1013.8 1013.8 1.2
15/04:30pm 14.6 12.1 13.5 93 0.6 SW 19 24 10 13 1013.5 1013.5 1.2
15/04:00pm 13.3 11.3 12.8 97 0.3 SSW 15 20 8 11 1013.4 1013.4 1.0
15/03:30pm 13.3 9.1 12.4 94 0.5 SW 26 32 14 17 1014.0 1014.0 0.8
15/03:00pm 15.4 14.4 12.3 82 1.7 SW 9 15 5 8 1013.8 1013.8 0.0
15/02:30pm 14.8 13.6 12.7 87 1.2 SSW 11 17 6 9 1014.1 1014.1 0.0
15/02:00pm 15.3 14.3 12.2 82 1.7 SW 9 15 5 8 1014.3 1014.3 0.0

Other formats

Comma delimited format used in spreadsheet applications
http://www.bom.gov.au/fwo/IDV60801/IDV60801.94837.axf

JavaScript Object Notation format (JSON) in row-major order
http://www.bom.gov.au/fwo/IDV60801/IDV60801.94837.json

Data quality

Most of these data are generated automatically and are frequently updated. Quality checks on data are not normally performed. It is possible for incorrect values to appear. Refer to information at About Latest Weather Observations and please check the disclaimer before using these data.